createdAt,value
2024-02-08T00:00:22.754Z,16.80
2024-02-08T00:02:49.969Z,17.92
2024-02-08T00:05:16.517Z,20.23
2024-02-08T00:07:43.089Z,19.27
2024-02-08T00:10:10.234Z,14.25
2024-02-08T00:12:41.115Z,15.98
2024-02-08T00:15:08.528Z,16.67
2024-02-08T00:17:35.269Z,18.08
2024-02-08T00:20:02.745Z,16.38
2024-02-08T00:22:29.348Z,14.32
2024-02-08T00:24:56.509Z,14.82
2024-02-08T00:27:23.206Z,18.75
2024-02-08T00:29:49.705Z,16.55
2024-02-08T00:32:16.524Z,16.90
2024-02-08T00:34:43.180Z,16.73
2024-02-08T00:37:09.840Z,21.27
2024-02-08T00:39:43.408Z,18.70
2024-02-08T00:42:12.376Z,18.13
2024-02-08T00:44:42.605Z,21.40
2024-02-08T00:47:12.663Z,26.25
2024-02-08T00:49:42.875Z,15.60
2024-02-08T00:52:09.886Z,16.27
2024-02-08T00:54:36.917Z,18.75
2024-02-08T00:57:08.786Z,15.05
2024-02-08T00:59:39.100Z,18.30
2024-02-08T01:02:06.995Z,14.15
2024-02-08T01:04:36.803Z,15.32
2024-02-08T01:07:03.975Z,18.10
2024-02-08T01:09:30.400Z,19.67
2024-02-08T01:11:57.007Z,22.92
2024-02-08T01:14:23.408Z,16.90
2024-02-08T01:16:51.334Z,16.95
2024-02-08T01:19:23.316Z,16.83
2024-02-08T01:21:54.053Z,15.27
2024-02-08T01:24:20.581Z,17.02
2024-02-08T01:26:48.315Z,14.15
2024-02-08T01:29:15.797Z,20.25
2024-02-08T01:31:42.885Z,14.95
2024-02-08T01:34:10.415Z,15.55
2024-02-08T01:36:41.536Z,14.70
2024-02-08T01:39:24.152Z,12.60
2024-02-08T01:41:51.997Z,16.15
2024-02-08T01:44:19.191Z,15.55
2024-02-08T01:46:49.475Z,14.65
2024-02-08T01:49:20.905Z,20.38
2024-02-08T01:51:47.916Z,19.55
2024-02-08T01:54:15.548Z,19.10
2024-02-08T01:56:45.726Z,16.02
2024-02-08T01:59:20.976Z,17.38
2024-02-08T02:01:52.256Z,21.42
2024-02-08T02:04:18.983Z,19.08
2024-02-08T02:06:45.710Z,20.98
2024-02-08T02:09:20.033Z,23.08
2024-02-08T02:11:52.688Z,15.60
2024-02-08T02:14:19.769Z,17.70
2024-02-08T02:16:47.743Z,19.35
2024-02-08T02:19:14.329Z,18.05
2024-02-08T02:21:40.980Z,24.60
2024-02-08T02:24:08.956Z,18.55
2024-02-08T02:26:36.356Z,16.27
2024-02-08T02:29:04.399Z,19.60
2024-02-08T02:34:01.524Z,15.85
2024-02-08T02:36:28.124Z,18.20
2024-02-08T02:38:54.535Z,13.23
2024-02-08T02:41:23.701Z,15.75
2024-02-08T02:43:50.136Z,17.55
2024-02-08T02:46:19.450Z,12.65
2024-02-08T02:48:46.127Z,12.05
2024-02-08T02:51:13.486Z,13.95
2024-02-08T02:53:43.474Z,20.55
2024-02-08T02:56:10.423Z,11.05
2024-02-08T02:58:37.086Z,12.98
2024-02-08T03:01:05.977Z,13.25
2024-02-08T03:03:41.547Z,18.48
2024-02-08T03:06:17.859Z,18.58
2024-02-08T03:08:45.729Z,14.27
2024-02-08T03:11:13.635Z,15.75
2024-02-08T03:13:41.791Z,17.65
2024-02-08T03:18:44.770Z,12.15
2024-02-08T03:21:12.606Z,18.60
2024-02-08T03:23:39.549Z,13.35
2024-02-08T03:26:08.325Z,16.15
2024-02-08T03:28:36.853Z,17.73
2024-02-08T03:31:03.421Z,14.35
2024-02-08T03:33:29.942Z,16.33
2024-02-08T03:35:56.418Z,13.95
2024-02-08T03:38:25.245Z,15.25
2024-02-08T03:40:51.813Z,18.98
2024-02-08T03:43:18.276Z,18.45
2024-02-08T03:45:47.830Z,13.57
2024-02-08T03:48:15.770Z,14.95
2024-02-08T03:50:42.448Z,14.75
2024-02-08T03:53:13.956Z,15.65
2024-02-08T03:55:45.524Z,18.67
2024-02-08T03:58:15.187Z,12.70
2024-02-08T04:00:48.996Z,18.13
2024-02-08T04:03:17.811Z,17.80
2024-02-08T04:05:47.349Z,14.85
2024-02-08T04:08:32.450Z,12.32
2024-02-08T04:10:58.907Z,17.02
2024-02-08T04:13:45.454Z,10.80
2024-02-08T04:16:31.479Z,16.13
2024-02-08T04:19:18.419Z,13.35
2024-02-08T04:22:03.692Z,16.08
2024-02-08T04:24:49.075Z,14.85
2024-02-08T04:27:34.495Z,14.02
2024-02-08T04:30:19.322Z,18.40
2024-02-08T04:33:07.640Z,14.27
2024-02-08T04:38:37.790Z,13.25
2024-02-08T04:41:23.269Z,14.77
2024-02-08T04:44:08.199Z,13.68
2024-02-08T04:46:53.574Z,11.63
2024-02-08T04:49:38.672Z,15.48
2024-02-08T04:52:23.959Z,11.98
2024-02-08T04:54:50.432Z,15.10
2024-02-08T04:57:16.884Z,12.95
2024-02-08T04:59:46.212Z,13.48
2024-02-08T05:02:13.181Z,15.50
2024-02-08T05:04:39.729Z,10.93
2024-02-08T05:07:08.296Z,14.57
2024-02-08T05:09:35.152Z,11.77
2024-02-08T05:12:06.493Z,20.77
2024-02-08T05:14:36.190Z,11.70
2024-02-08T05:17:03.444Z,19.38
2024-02-08T05:19:30.235Z,11.57
2024-02-08T05:22:01.310Z,11.35
2024-02-08T05:24:29.106Z,13.55
2024-02-08T05:26:56.499Z,21.83
2024-02-08T05:29:23.107Z,14.38
2024-02-08T05:31:52.684Z,11.27
2024-02-08T05:34:19.720Z,12.45
2024-02-08T05:36:47.922Z,17.80
2024-02-08T05:41:46.152Z,13.32
2024-02-08T05:44:13.824Z,16.85
2024-02-08T05:46:40.654Z,10.40
2024-02-08T05:49:15.620Z,15.25
2024-02-08T05:51:48.056Z,12.63
2024-02-08T05:54:21.616Z,15.15
2024-02-08T05:56:51.071Z,15.05
2024-02-08T05:59:19.295Z,15.30
2024-02-08T06:01:55.477Z,9.13
2024-02-08T06:04:36.421Z,12.88
2024-02-08T06:07:09.652Z,11.88
2024-02-08T06:09:50.278Z,11.15
2024-02-08T06:12:29.149Z,14.88
2024-02-08T06:15:01.459Z,13.43
2024-02-08T06:17:34.480Z,11.25
2024-02-08T06:20:02.136Z,11.20
2024-02-08T06:22:30.339Z,12.48
2024-02-08T06:25:09.701Z,9.40
2024-02-08T06:27:42.778Z,13.75
2024-02-08T06:30:10.822Z,16.05
2024-02-08T06:32:46.708Z,22.00
2024-02-08T06:35:20.865Z,9.18
2024-02-08T06:38:04.371Z,9.25
2024-02-08T06:40:50.526Z,9.70
2024-02-08T06:43:26.738Z,14.23
2024-02-08T06:46:10.538Z,9.80
2024-02-08T06:49:10.170Z,15.95
2024-02-08T06:51:55.898Z,13.73
2024-02-08T06:54:40.869Z,11.38
2024-02-08T06:57:25.679Z,15.93
2024-02-08T07:00:10.665Z,16.73
2024-02-08T07:02:57.850Z,18.40
2024-02-08T07:05:42.975Z,8.88
2024-02-08T07:08:28.037Z,12.77
2024-02-08T07:11:12.875Z,16.73
2024-02-08T07:13:57.823Z,7.05
2024-02-08T07:16:42.604Z,9.52
2024-02-08T07:19:27.616Z,13.60
2024-02-08T07:22:12.725Z,11.90
2024-02-08T07:25:03.597Z,9.70
2024-02-08T07:27:49.071Z,13.88
2024-02-08T07:30:34.453Z,8.68
2024-02-08T07:33:19.817Z,14.52
2024-02-08T07:36:04.969Z,12.88
2024-02-08T07:38:49.994Z,9.98
2024-02-08T07:41:20.261Z,9.43
2024-02-08T07:43:55.792Z,17.00
2024-02-08T07:46:31.051Z,14.90
2024-02-08T07:49:00.155Z,18.98
2024-02-08T07:51:30.113Z,11.60
2024-02-08T07:53:59.613Z,9.52
2024-02-08T07:56:26.370Z,18.27
2024-02-08T07:58:53.009Z,11.68
2024-02-08T08:01:20.103Z,15.32
2024-02-08T08:03:46.784Z,9.07
2024-02-08T08:06:16.578Z,7.50
2024-02-08T08:08:58.525Z,9.23
2024-02-08T08:11:32.356Z,11.40
2024-02-08T08:13:58.917Z,21.33
2024-02-08T08:16:31.905Z,10.35
2024-02-08T08:18:59.558Z,13.45
2024-02-08T08:21:27.337Z,11.75
2024-02-08T08:24:03.804Z,16.20
2024-02-08T08:26:45.779Z,11.15
2024-02-08T08:29:18.291Z,8.45
2024-02-08T08:32:09.180Z,11.15
2024-02-08T08:34:56.001Z,12.43
2024-02-08T08:37:41.320Z,16.15
2024-02-08T08:40:39.182Z,20.83
2024-02-08T08:43:20.465Z,15.23
2024-02-08T08:45:53.946Z,17.15
2024-02-08T08:48:21.828Z,12.98
2024-02-08T08:50:56.396Z,11.60
2024-02-08T08:55:56.630Z,12.00
2024-02-08T08:58:28.879Z,8.52
2024-02-08T09:01:13.099Z,13.98
2024-02-08T09:03:41.153Z,12.85
2024-02-08T09:06:13.328Z,15.70
2024-02-08T09:08:45.287Z,11.43
2024-02-08T09:11:15.873Z,14.20
2024-02-08T09:13:52.376Z,9.82
2024-02-08T09:16:26.453Z,11.00
2024-02-08T09:19:02.101Z,8.55
2024-02-08T09:21:34.437Z,11.07
2024-02-08T09:24:05.591Z,16.15
2024-02-08T09:26:55.265Z,14.48
2024-02-08T09:29:29.618Z,9.40
2024-02-08T09:32:00.578Z,13.90
2024-02-08T09:34:42.429Z,11.20
2024-02-08T09:37:10.399Z,11.07
2024-02-08T09:39:55.246Z,7.50
2024-02-08T09:42:28.469Z,17.38
2024-02-08T09:44:57.865Z,13.80
2024-02-08T09:47:32.851Z,9.20
2024-02-08T09:50:02.388Z,10.15
2024-02-08T09:52:35.817Z,6.95
2024-02-08T09:55:19.848Z,9.50
2024-02-08T09:57:47.733Z,13.73
2024-02-08T10:00:36.085Z,9.43
2024-02-08T10:05:58.703Z,8.65
2024-02-08T10:08:33.501Z,10.25
2024-02-08T10:14:03.224Z,13.48
2024-02-08T10:16:32.269Z,11.90
2024-02-08T10:19:04.727Z,12.75
2024-02-08T10:21:36.862Z,14.25
2024-02-08T10:24:22.019Z,11.05
2024-02-08T10:26:48.503Z,14.20
2024-02-08T10:29:17.916Z,13.45
2024-02-08T10:31:54.104Z,17.10
2024-02-08T10:34:35.274Z,16.45
2024-02-08T10:37:05.235Z,11.55
2024-02-08T10:39:33.314Z,16.77
2024-02-08T10:44:30.715Z,11.65
2024-02-08T10:46:58.945Z,11.88
2024-02-08T10:49:27.087Z,17.67
2024-02-08T10:52:01.760Z,9.00
2024-02-08T10:54:43.927Z,12.80
2024-02-08T10:57:32.131Z,13.85
2024-02-08T11:00:00.488Z,15.80
2024-02-08T11:02:36.348Z,14.30
2024-02-08T11:05:23.073Z,15.93
2024-02-08T11:07:52.455Z,14.93
2024-02-08T11:10:24.630Z,15.80
2024-02-08T11:12:58.085Z,16.45
2024-02-08T11:15:39.880Z,12.57
2024-02-08T11:18:10.050Z,20.30
2024-02-08T11:20:44.494Z,16.38
2024-02-08T11:23:19.434Z,17.50
2024-02-08T11:25:46.597Z,15.80
2024-02-08T11:28:25.604Z,16.65
2024-02-08T11:30:54.462Z,16.17
2024-02-08T11:33:34.146Z,17.55
2024-02-08T11:36:15.837Z,18.10
2024-02-08T11:38:48.071Z,13.98
2024-02-08T11:41:16.857Z,12.98
2024-02-08T11:43:49.505Z,13.80
2024-02-08T11:46:22.812Z,14.93
2024-02-08T11:48:50.850Z,19.23
2024-02-08T11:51:18.731Z,15.70
2024-02-08T11:53:46.708Z,13.77
2024-02-08T11:58:48.048Z,15.30
2024-02-08T12:01:15.914Z,13.98
2024-02-08T12:06:18.609Z,18.13
2024-02-08T12:09:04.205Z,12.65
2024-02-08T12:11:35.411Z,12.23
2024-02-08T12:14:20.438Z,9.70
2024-02-08T12:16:58.668Z,17.23
2024-02-08T12:19:27.310Z,14.40
2024-02-08T12:21:58.927Z,18.08
2024-02-08T12:24:26.378Z,9.15
2024-02-08T12:27:06.351Z,12.23
2024-02-08T12:29:34.993Z,9.02
2024-02-08T12:32:01.726Z,8.73
2024-02-08T12:34:34.312Z,9.80
2024-02-08T12:37:07.438Z,8.68
2024-02-08T12:39:50.546Z,10.70
2024-02-08T12:42:19.214Z,10.85
2024-02-08T12:44:50.150Z,9.25
2024-02-08T12:47:20.448Z,9.25
2024-02-08T12:49:51.770Z,11.25
2024-02-08T12:52:21.271Z,6.47
2024-02-08T12:54:55.278Z,10.05
2024-02-08T12:57:24.741Z,9.55
2024-02-08T13:00:04.066Z,13.73
2024-02-08T13:02:34.546Z,11.65
2024-02-08T13:05:05.675Z,11.48
2024-02-08T13:07:36.487Z,7.40
2024-02-08T13:10:15.703Z,9.02
2024-02-08T13:12:43.053Z,7.28
2024-02-08T13:15:11.346Z,7.20
2024-02-08T13:17:39.175Z,10.48
2024-02-08T13:20:18.152Z,7.60
2024-02-08T13:22:49.599Z,9.00
2024-02-08T13:25:17.754Z,8.45
2024-02-08T13:27:47.561Z,9.50
2024-02-08T13:30:17.525Z,9.85
2024-02-08T13:32:53.719Z,9.50
2024-02-08T13:35:21.302Z,8.65
2024-02-08T13:37:54.251Z,7.78
2024-02-08T13:40:23.937Z,6.93
2024-02-08T13:42:57.215Z,7.82
2024-02-08T13:45:31.216Z,7.10
2024-02-08T13:48:02.487Z,6.75
2024-02-08T13:50:31.767Z,11.00
2024-02-08T13:53:00.717Z,7.15
2024-02-08T13:55:45.188Z,8.60
2024-02-08T13:58:19.643Z,8.60
2024-02-08T14:00:46.506Z,11.45
2024-02-08T14:03:17.843Z,12.88
2024-02-08T14:05:52.097Z,7.32
2024-02-08T14:08:19.688Z,7.72
2024-02-08T14:10:46.832Z,7.75
2024-02-08T14:13:17.915Z,8.95
2024-02-08T14:15:46.959Z,7.65
2024-02-08T14:18:27.445Z,8.48
2024-02-08T14:20:57.825Z,9.30
2024-02-08T14:23:42.274Z,7.82
2024-02-08T14:26:10.006Z,11.15
2024-02-08T14:28:47.489Z,8.25
2024-02-08T14:31:15.213Z,12.45
2024-02-08T14:33:48.777Z,13.60
2024-02-08T14:36:17.934Z,10.18
2024-02-08T14:38:46.362Z,10.43
2024-02-08T14:41:27.395Z,11.93
2024-02-08T14:46:27.462Z,10.23
2024-02-08T14:48:55.036Z,9.38
2024-02-08T14:51:24.685Z,10.27
2024-02-08T14:53:55.055Z,8.40
2024-02-08T14:56:22.204Z,8.05
2024-02-08T14:59:10.645Z,12.40
2024-02-08T15:01:41.359Z,7.97
2024-02-08T15:04:19.020Z,7.28
2024-02-08T15:07:05.306Z,6.97
2024-02-08T15:09:36.097Z,9.93
2024-02-08T15:12:35.897Z,11.75
2024-02-08T15:15:07.202Z,14.90
2024-02-08T15:17:44.151Z,11.05
2024-02-08T15:20:30.169Z,5.85
2024-02-08T15:23:10.723Z,7.57
2024-02-08T15:25:47.090Z,5.47
2024-02-08T15:28:33.853Z,8.35
2024-02-08T15:31:23.231Z,5.82
2024-02-08T15:34:08.865Z,4.57
2024-02-08T15:36:54.331Z,10.85
2024-02-08T15:39:50.645Z,4.13
2024-02-08T15:42:32.755Z,7.55
2024-02-08T15:45:00.507Z,4.43
2024-02-08T15:47:30.259Z,6.53
2024-02-08T15:49:57.803Z,6.93
2024-02-08T15:52:35.013Z,6.93
2024-02-08T15:55:16.047Z,8.82
2024-02-08T15:57:47.930Z,6.80
2024-02-08T16:00:33.535Z,5.60
2024-02-08T16:03:03.810Z,6.18
2024-02-08T16:05:30.520Z,5.30
2024-02-08T16:08:07.039Z,5.15
2024-02-08T16:10:33.897Z,6.20
2024-02-08T16:13:07.303Z,5.60
2024-02-08T16:15:53.948Z,7.05
2024-02-08T16:18:27.967Z,5.65
2024-02-08T16:20:55.876Z,6.32
2024-02-08T16:23:28.046Z,4.50
2024-02-08T16:26:07.749Z,4.55
2024-02-08T16:28:47.060Z,3.08
2024-02-08T16:31:16.566Z,4.65
2024-02-08T16:33:54.426Z,4.10
2024-02-08T16:36:43.141Z,5.82
2024-02-08T16:39:15.526Z,6.57
2024-02-08T16:42:02.826Z,5.10
2024-02-08T16:44:51.056Z,6.35
2024-02-08T16:47:35.841Z,3.47
2024-02-08T16:50:18.356Z,7.13
2024-02-08T16:52:50.624Z,4.47
2024-02-08T16:55:22.435Z,6.80
2024-02-08T16:58:02.001Z,5.35
2024-02-08T17:00:39.926Z,4.68
2024-02-08T17:03:18.883Z,4.18
2024-02-08T17:05:54.590Z,5.78
2024-02-08T17:08:31.077Z,4.07
2024-02-08T17:11:02.361Z,5.65
2024-02-08T17:13:31.384Z,10.15
2024-02-08T17:16:01.773Z,6.15
2024-02-08T17:18:35.156Z,5.22
2024-02-08T17:21:16.319Z,5.68
2024-02-08T17:23:44.159Z,8.30
2024-02-08T17:26:27.574Z,7.53
2024-02-08T17:29:08.484Z,5.95
2024-02-08T17:31:43.244Z,6.43
2024-02-08T17:36:44.798Z,8.70
2024-02-08T17:39:25.372Z,10.93
2024-02-08T17:41:52.981Z,6.72
2024-02-08T17:44:20.325Z,8.27
2024-02-08T17:46:47.905Z,6.72
2024-02-08T17:49:20.566Z,7.70
2024-02-08T17:51:50.930Z,8.45
2024-02-08T17:54:25.896Z,6.85
2024-02-08T17:56:53.459Z,7.20
2024-02-08T17:59:19.999Z,7.30
2024-02-08T18:01:57.327Z,14.00
2024-02-08T18:04:26.755Z,15.00
2024-02-08T18:06:59.997Z,9.88
2024-02-08T18:09:31.012Z,10.85
2024-02-08T18:12:13.209Z,8.20
2024-02-08T18:14:43.822Z,8.55
2024-02-08T18:17:20.703Z,6.85
2024-02-08T18:19:48.068Z,4.95
2024-02-08T18:22:15.684Z,6.68
2024-02-08T18:24:49.413Z,8.10
2024-02-08T18:27:23.392Z,7.00
2024-02-08T18:29:52.450Z,7.25
2024-02-08T18:32:20.186Z,7.28
2024-02-08T18:34:51.095Z,8.55
2024-02-08T18:37:26.368Z,8.85
2024-02-08T18:39:55.070Z,8.85
2024-02-08T18:42:23.380Z,6.57
2024-02-08T18:44:50.247Z,10.82
2024-02-08T18:47:20.012Z,9.60
2024-02-08T18:50:08.240Z,9.52
2024-02-08T18:55:10.454Z,8.02
2024-02-08T18:57:37.367Z,7.82
2024-02-08T19:00:14.242Z,9.32
2024-02-08T19:02:41.301Z,9.20
2024-02-08T19:05:08.262Z,12.20
2024-02-08T19:07:34.937Z,10.90
2024-02-08T19:10:02.517Z,10.73
2024-02-08T19:12:29.714Z,9.77
2024-02-08T19:14:56.165Z,9.00
2024-02-08T19:17:22.915Z,9.40
2024-02-08T19:19:49.860Z,6.47
2024-02-08T19:22:24.182Z,8.23
2024-02-08T19:24:52.600Z,9.35
2024-02-08T19:27:19.841Z,8.10
2024-02-08T19:29:46.295Z,13.65
2024-02-08T19:32:19.977Z,8.05
2024-02-08T19:34:53.525Z,10.88
2024-02-08T19:37:22.174Z,12.57
2024-02-08T19:39:55.640Z,11.40
2024-02-08T19:42:25.078Z,8.57
2024-02-08T19:44:55.842Z,9.57
2024-02-08T19:47:27.700Z,8.38
2024-02-08T19:50:02.549Z,11.10
2024-02-08T19:52:32.867Z,8.80
2024-02-08T19:55:04.274Z,13.20
2024-02-08T19:57:40.409Z,10.55
2024-02-08T20:00:18.455Z,8.30
2024-02-08T20:02:45.545Z,8.45
2024-02-08T20:05:13.387Z,9.25
2024-02-08T20:07:41.012Z,10.20
2024-02-08T20:10:15.430Z,9.95
2024-02-08T20:12:50.175Z,9.50
2024-02-08T20:15:21.553Z,10.32
2024-02-08T20:17:50.752Z,9.93
2024-02-08T20:20:22.162Z,10.15
2024-02-08T20:22:57.031Z,9.55
2024-02-08T20:25:27.195Z,8.52
2024-02-08T20:28:01.961Z,10.02
2024-02-08T20:30:29.725Z,11.32
2024-02-08T20:33:00.274Z,8.07
2024-02-08T20:35:34.935Z,8.30
2024-02-08T20:38:06.218Z,10.93
2024-02-08T20:40:32.747Z,8.82
2024-02-08T20:43:00.571Z,11.27
2024-02-08T20:45:28.343Z,10.45
2024-02-08T20:47:55.245Z,11.98
2024-02-08T20:50:21.915Z,10.48
2024-02-08T20:52:50.589Z,12.55
2024-02-08T20:55:25.071Z,12.60
2024-02-08T20:57:53.764Z,9.35
2024-02-08T21:00:23.428Z,9.80
2024-02-08T21:02:52.992Z,13.07
2024-02-08T21:05:22.267Z,8.95
2024-02-08T21:07:49.017Z,13.05
2024-02-08T21:10:15.753Z,11.68
2024-02-08T21:12:43.449Z,10.30
2024-02-08T21:15:10.413Z,9.18
2024-02-08T21:17:46.414Z,10.48
2024-02-08T21:20:16.899Z,8.35
2024-02-08T21:22:43.906Z,10.40
2024-02-08T21:25:16.473Z,9.57
2024-02-08T21:27:46.662Z,7.82
2024-02-08T21:30:13.919Z,12.18
2024-02-08T21:32:41.437Z,12.20
2024-02-08T21:35:12.422Z,9.38
2024-02-08T21:37:38.964Z,10.65
2024-02-08T21:40:06.156Z,18.33
2024-02-08T21:42:33.436Z,15.70
2024-02-08T21:45:01.318Z,15.48
2024-02-08T21:47:28.028Z,13.30
2024-02-08T21:49:54.709Z,12.43
2024-02-08T21:52:21.406Z,15.30
2024-02-08T21:54:47.922Z,28.30
2024-02-08T21:57:17.452Z,14.43
2024-02-08T21:59:43.889Z,14.52
2024-02-08T22:02:10.337Z,16.15
2024-02-08T22:04:38.959Z,17.05
2024-02-08T22:07:07.119Z,12.45
2024-02-08T22:12:00.706Z,15.45
2024-02-08T22:14:28.602Z,14.65
2024-02-08T22:16:59.376Z,15.32
2024-02-08T22:19:34.519Z,13.60
2024-02-08T22:22:01.062Z,14.00
2024-02-08T22:24:27.501Z,11.75
2024-02-08T22:26:53.908Z,13.63
2024-02-08T22:29:20.623Z,14.52
2024-02-08T22:31:47.737Z,13.73
2024-02-08T22:34:14.444Z,14.48
2024-02-08T22:36:42.350Z,11.00
2024-02-08T22:39:14.958Z,10.38
2024-02-08T22:41:45.953Z,13.90
2024-02-08T22:44:12.573Z,11.07
2024-02-08T22:46:45.657Z,17.23
2024-02-08T22:49:16.092Z,15.10
2024-02-08T22:51:46.662Z,12.63
2024-02-08T22:54:13.165Z,12.40
2024-02-08T22:56:42.103Z,15.45
2024-02-08T22:59:11.262Z,15.05
2024-02-08T23:01:39.364Z,15.45
2024-02-08T23:04:08.391Z,15.68
2024-02-08T23:06:36.828Z,13.30
2024-02-08T23:09:07.479Z,16.42
2024-02-08T23:11:34.778Z,14.45
2024-02-08T23:14:04.651Z,16.52
2024-02-08T23:16:32.949Z,15.77
2024-02-08T23:19:03.328Z,14.40
2024-02-08T23:21:32.003Z,18.13
2024-02-08T23:24:08.107Z,15.23
2024-02-08T23:26:37.977Z,14.73
2024-02-08T23:29:05.116Z,19.13
2024-02-08T23:31:34.622Z,17.77
2024-02-08T23:34:01.406Z,17.75
2024-02-08T23:36:29.155Z,16.88
2024-02-08T23:39:00.641Z,18.08
2024-02-08T23:41:30.616Z,20.70
2024-02-08T23:44:00.539Z,18.83
2024-02-08T23:46:27.416Z,17.98
2024-02-08T23:48:58.036Z,21.27
2024-02-08T23:51:25.261Z,19.55
2024-02-08T23:53:52.622Z,20.63
2024-02-08T23:56:24.818Z,19.25
2024-02-08T23:58:53.475Z,23.65
